• Join FlightAware (Why Join?)
  • Login
  • US Flag 
11:02AM EDT


 

Airport Tracker/Info


-or-


 

Live Flight TrackerFlight Track Log ✈ DAL8871 ✈ 25-Sep-2013 ✈ KSJC - KSTL

Flight Track Log - Related Links

Times and Time Zones

All times are in EDT time to prevent confusion due to time zone crossing. See the DAL8871 flight status page for this flight to view local times or setup timezone preferences in your user account.

Time Position Orientation Groundspeed Altitude Reporting Facility
EDT Latitude Longitude Course Direction KTS MPH feet Rate Location/Type
01:56PM 37.3833 -121.9500 54° Northeast 171 197 1,500  Level Northern Cal TRACON
01:58PM 37.4217 -121.8825 54° Northeast 272 313 5,000 1,740 Climbing Oakland Center
01:59PM 37.3622 -121.8128 137° Southeast 289 333 7,000 2,340 Climbing Oakland Center
02:00PM 37.2853 -121.8017 173° South 304 350 9,900 2,220 Climbing Oakland Center
02:01PM 37.2619 -121.8881 251° West 292 336 11,600 1,980 Climbing Oakland Center
02:02PM 37.3347 -121.9403 330° Northwest 320 368 14,000 2,040 Climbing Oakland Center
02:03PM 37.4525 -121.9547 354° North 357 411 15,900 1,800 Climbing Oakland Center
02:04PM 37.5519 -121.9178 16° North 396 456 17,700 2,040 Climbing Oakland Center
02:05PM 37.6169 -121.7828 59° Northeast 453 521 20,100 1,620 Climbing Oakland Center
02:06PM 37.6933 -121.6589 52° Northeast 449 517 21,100 1,020 Climbing Oakland Center
02:07PM 37.7719 -121.5242 54° Northeast 469 540 22,200 1,200 Climbing Oakland Center
02:08PM 37.8606 -121.3739 53° Northeast 499 574 23,600 1,260 Climbing Oakland Center
02:09PM 37.9453 -121.2281 54° Northeast 514 592 24,900 1,260 Climbing Oakland Center
02:10PM 38.0308 -121.0789 54° Northeast 524 603 26,300 1,500 Climbing Oakland Center
02:12PM 38.1061 -120.8711 65° Northeast 550 633 28,100 1,500 Climbing Oakland Center
02:13PM 38.1506 -120.6800 73° East 567 652 29,400 1,260 Climbing Oakland Center
02:14PM 38.1956 -120.4914 73° East 563 648 30,800 1,200 Climbing Oakland Center
02:15PM 38.2408 -120.2972 73° East 574 661 31,900 1,200 Climbing Oakland Center
02:16PM 38.2872 -120.1028 73° East 576 663 33,300 1,260 Climbing Oakland Center
02:17PM 38.3333 -119.9086 73° East 577 664 34,500 780 Climbing Oakland Center
02:18PM 38.3867 -119.6783 73° East 569 655 35,000 240 Climbing Oakland Center
02:19PM 38.4306 -119.4900 73° East 570 656 35,000  Level Oakland Center
02:20PM 38.4742 -119.2983 74° East 566 651 35,000  Level Oakland Center
02:21PM 38.5114 -119.1056 76° East 564 649 35,000  Level Oakland Center
02:22PM 38.5311 -118.9056 83° East 569 655 35,000  Level Oakland Center
02:23PM 38.5500 -118.7047 83° East 573 659 35,000  Level Oakland Center
02:24PM 38.5733 -118.4636 83° East 574 661 35,000  Level Oakland Center
02:25PM 38.5922 -118.2603 83° East 579 666 35,000  Level Oakland Center
02:26PM 38.6131 -118.0458 83° East 584 672 35,000  Level Oakland Center
02:27PM 38.6311 -117.8381 84° East 586 674 35,000  Level Oakland Center
02:28PM 38.6500 -117.6297 83° East 587 676 35,000  Level Oakland Center
02:29PM 38.6683 -117.4203 84° East 588 677 35,000  Level Oakland Center
02:30PM 38.6917 -117.2111 82° East 589 678 35,000  Level Oakland Center
02:31PM 38.7103 -117.0869 79° East 586 674 35,000  Level Salt Lake Center
02:32PM 38.7461 -116.8381 79° East 589 678 35,000  Level Salt Lake Center
02:33PM 38.7778 -116.6294 79° East 592 681 35,000  Level Salt Lake Center
02:34PM 38.8078 -116.4225 79° East 590 679 35,100  Climbing Salt Lake Center
02:35PM 38.8372 -116.2128 80° East 595 685 35,000 -60 Descending Salt Lake Center
02:36PM 38.8658 -116.0078 80° East 586 674 35,000  Level Salt Lake Center
02:37PM 38.8947 -115.8017 80° East 585 673 35,000  Level Salt Lake Center
02:38PM 38.9231 -115.5961 80° East 586 674 35,000  Level Salt Lake Center
02:39PM 38.9542 -115.3617 80° East 587 676 35,000  Level Salt Lake Center
02:40PM 38.9858 -115.1317 80° East 593 682 35,000  Level Salt Lake Center
02:41PM 39.0133 -114.9239 80° East 592 681 35,000  Level Salt Lake Center
02:42PM 39.0408 -114.7144 80° East 593 682 35,000  Level Salt Lake Center
02:43PM 39.0672 -114.5044 81° East 595 685 35,000  Level Salt Lake Center
02:44PM 39.0942 -114.2950 81° East 594 684 35,000  Level Salt Lake Center
02:45PM 39.1192 -114.0864 81° East 591 680 35,000  Level Salt Lake Center
02:46PM 39.1464 -113.8786 80° East 588 677 35,000  Level Salt Lake Center
02:47PM 39.1747 -113.6294 82° East 586 674 35,000  Level Salt Lake Center
02:48PM 39.1994 -113.4225 81° East 584 672 35,000  Level Salt Lake Center
02:49PM 39.2231 -113.2156 82° East 584 672 35,000  Level Salt Lake Center
02:50PM 39.2467 -113.0058 82° East 589 678 35,000  Level Salt Lake Center
02:51PM 39.2706 -112.7967 82° East 590 679 35,000  Level Salt Lake Center
02:52PM 39.2961 -112.5664 82° East 589 678 35,000  Level Salt Lake Center
02:53PM 39.3119 -112.3581 84° East 586 674 35,000  Level Salt Lake Center
02:54PM 39.3194 -112.1442 87° East 594 684 35,000  Level Salt Lake Center
02:55PM 39.3292 -111.9339 87° East 592 681 35,000  Level Salt Lake Center
02:57PM 39.3389 -111.6808 87° East 591 680 35,000  Level Salt Lake Center
02:58PM 39.3497 -111.4736 86° East 584 672 35,000  Level Salt Lake Center
02:59PM 39.3589 -111.2447 87° East 588 677 35,000  Level Salt Lake Center
03:00PM 39.3650 -111.0442 88° East 587 676 35,000  Level Salt Lake Center
03:01PM 39.3714 -110.8431 88° East 586 674 35,000  Level Salt Lake Center
03:02PM 39.3800 -110.6103 87° East 584 672 35,000  Level Salt Lake Center
03:03PM 39.3856 -110.4117 88° East 579 666 35,000  Level Salt Lake Center
03:04PM 39.3933 -110.1833 87° East 572 658 35,000  Level Salt Lake Center
03:05PM 39.3981 -109.9864 88° East 574 661 35,000  Level Salt Lake Center
03:06PM 39.4033 -109.7608 88° East 565 650 35,000  Level Salt Lake Center
03:07PM 39.4086 -109.5683 88° East 562 647 35,000  Level Salt Lake Center
03:08PM 39.4125 -109.3444 89° East 560 644 35,000  Level Salt Lake Center
03:09PM 39.4164 -109.1525 88° East 561 646 35,000  Level Salt Lake Center
03:10PM 39.4203 -108.9283 89° East 563 648 35,000  Level Salt Lake Center
03:11PM 39.4239 -108.7372 89° East 565 650 35,000  Level Salt Lake Center
03:12PM 39.4278 -108.5158 89° East 561 646 35,000  Level Salt Lake Center
03:13PM 39.4300 -108.3233 89° East 562 647 35,000  Level Salt Lake Center
03:14PM 39.4336 -108.0347 89° East 559 643 35,000  Level Denver Center
03:15PM 39.4358 -107.8117 89° East 558 642 35,000  Level Denver Center
03:16PM 39.4361 -107.6206 90° East 556 640 35,000  Level Denver Center
03:18PM 39.4369 -107.4297 90° East 556 640 35,000  Level Denver Center
03:19PM 39.4375 -107.2075 90° East 555 639 35,000  Level Denver Center
03:20PM 39.4389 -107.0164 89° East 555 639 35,000  Level Denver Center
03:21PM 39.4433 -106.7956 88° East 551 634 35,000  Level Denver Center
03:22PM 39.4631 -106.6078 82° East 548 631 35,000  Level Denver Center
03:23PM 39.4814 -106.4033 83° East 547 629 35,000  Level Denver Center
03:24PM 39.4981 -106.2097 84° East 542 624 35,000  Level Denver Center
03:25PM 39.5161 -105.9844 84° East 538 619 35,100  Climbing Denver Center
03:26PM 39.5319 -105.7919 84° East 541 623 35,000 -60 Descending Denver Center
03:27PM 39.5458 -105.6031 84° East 527 606 35,000  Level Denver Center
03:28PM 39.5578 -105.4164 85° East 519 597 35,000  Level Denver Center
03:29PM 39.5711 -105.2322 85° East 514 592 35,000  Level Denver Center
03:30PM 39.5847 -105.0353 85° East 505 581 35,000  Level Denver Center
03:31PM 39.5947 -104.8850 85° East 499 574 35,000  Level Denver Center
03:32PM 39.6094 -104.6625 85° East 508 585 35,000  Level Denver Center
03:33PM 39.6228 -104.4664 85° East 511 588 35,000  Level Denver Center
03:34PM 39.6347 -104.2744 85° East 505 581 35,000  Level Denver Center
03:35PM 39.6461 -104.0906 85° East 510 587 35,000  Level Denver Center
03:36PM 39.6575 -103.9094 85° East 505 581 35,000  Level Denver Center
03:37PM 39.6675 -103.7250 86° East 501 577 35,000  Level Denver Center
03:38PM 39.6772 -103.5797 85° East 502 578 35,000  Level Denver Center
03:39PM 39.6894 -103.3575 86° East 514 592 35,000  Level Denver Center
03:40PM 39.6872 -103.1353 91° East 515 593 35,000  Level Denver Center
03:41PM 39.6639 -102.9547 99° East 510 587 35,000  Level Denver Center
03:42PM 39.6378 -102.7719 100° East 513 590 35,000  Level Denver Center
03:43PM 39.6125 -102.5883 100° East 518 596 35,000  Level Denver Center
03:44PM 39.5858 -102.4061 101° East 516 594 35,000  Level Denver Center
03:45PM 39.5589 -102.2036 100° East 514 592 35,000  Level Denver Center
03:46PM 39.5336 -102.0303 101° East 514 592 35,000  Level Denver Center
03:48PM 39.5036 -101.8289 101° East 510 587 35,000  Level Denver Center
03:49PM 39.4794 -101.6567 100° East 510 587 35,000  Level Denver Center
03:50PM 39.4497 -101.4561 101° East 510 587 35,000  Level Denver Center
03:51PM 39.4233 -101.2842 101° East 511 588 35,000  Level Denver Center
03:52PM 39.3936 -101.0839 101° East 511 588 35,000  Level Denver Center
03:53PM 39.3675 -100.9133 101° East 509 586 35,000  Level Denver Center
03:54PM 39.3361 -100.7150 102° East 507 583 35,000  Level Denver Center
03:55PM 39.3094 -100.5469 102° East 503 579 35,000  Level Denver Center
03:56PM 39.2733 -100.3189 101° East 508 585 35,000  Level Denver Center
03:57PM 39.2606 -100.1147 95° East 520 598 35,000  Level Denver Center
03:58PM 39.2664 -99.9378 88° East 518 596 35,000  Level Denver Center
03:59PM 39.2706 -99.7603 88° East 518 596 35,000  Level Denver Center
04:00PM 39.2758 -99.5517 88° East 521 600 35,000  Level Denver Center
04:01PM 39.2797 -99.3739 88° East 521 600 35,000  Level Denver Center
04:02PM 39.2839 -99.1653 88° East 522 601 35,000  Level Denver Center
04:03PM 39.2847 -99.0650 89° East 517 595 35,000  Level Kansas City Center
04:04PM 39.2886 -98.8769 88° East 522 601 35,000  Level Kansas City Center
04:05PM 39.2903 -98.6872 89° East 517 595 35,000  Level Kansas City Center
04:06PM 39.2953 -98.5114 88° East 531 611 35,000  Level Kansas City Center
04:07PM 39.2983 -98.2889 89° East 518 596 35,000  Level Kansas City Center
04:08PM 39.2983 -98.1233 90° East 512 589 35,000  Level Kansas City Center
04:09PM 39.3000 -97.9197 89° East 508 585 35,000  Level Kansas City Center
04:10PM 39.3039 -97.7364 88° East 523 602 35,000  Level Kansas City Center
04:11PM 39.3053 -97.5528 89° East 515 593 35,000  Level Kansas City Center
04:12PM 39.3042 -97.3606 90° East 507 583 35,000  Level Kansas City Center
04:13PM 39.3044 -97.1531 90° East 515 593 35,000  Level Kansas City Center
04:14PM 39.3053 -96.9781 90° East 512 589 35,000  Level Kansas City Center
04:15PM 39.3050 -96.8008 90° East 514 592 35,000  Level Kansas City Center
04:16PM 39.3056 -96.5944 90° East 515 593 35,000  Level Kansas City Center
04:17PM 39.3047 -96.3969 90° East 515 593 35,000  Level Kansas City Center
04:18PM 39.3047 -96.2114 90° East 516 594 35,000  Level Kansas City Center
04:19PM 39.3017 -96.0325 91° East 517 595 35,000  Level Kansas City Center
04:20PM 39.3006 -95.8261 90° East 514 592 35,000  Level Kansas City Center
04:21PM 39.2992 -95.6483 91° East 515 593 35,000  Level Kansas City Center
04:22PM 39.2967 -95.4386 91° East 515 593 35,000  Level Kansas City Center
04:23PM 39.2933 -95.2547 91° East 515 593 35,000  Level Kansas City Center
04:24PM 39.2917 -95.0764 91° East 516 594 35,000 -60 Level Kansas City Center
04:25PM 39.2869 -94.8711 92° East 511 588 34,900  Descending Kansas City Center
04:26PM 39.2725 -94.6947 96° East 514 592 35,000  Climbing Kansas City Center
04:28PM 39.2139 -94.5047 112° Southeast 511 588 35,000  Level Kansas City Center
04:29PM 39.1633 -94.3433 112° Southeast 508 585 35,000  Level Kansas City Center
04:30PM 39.1042 -94.1558 112° Southeast 507 583 35,000  Level Kansas City Center
04:31PM 39.0711 -93.9878 104° East 506 582 35,000  Level Kansas City Center
04:32PM 39.0453 -93.8164 101° East 508 585 35,000  Level Kansas City Center
04:33PM 39.0131 -93.6172 102° East 509 586 35,000 -300 Level Kansas City Center
04:34PM 38.9878 -93.4511 101° East 506 582 34,500 -1,020 Descending Kansas City Center
04:35PM 38.9511 -93.2375 102° East 507 583 32,900 -1,380 Descending Kansas City Center
04:36PM 38.9203 -93.0575 102° East 512 589 31,700 -1,140 Descending Kansas City Center
04:37PM 38.8908 -92.8792 102° East 511 588 30,600 -1,140 Descending Kansas City Center
04:38PM 38.8608 -92.7039 102° East 505 581 29,400 -1,260 Descending Kansas City Center
04:39PM 38.8303 -92.5294 103° East 501 577 28,000 -1,560 Descending Kansas City Center
04:40PM 38.8003 -92.3533 102° East 500 575 26,200 -1,500 Descending Kansas City Center
04:41PM 38.7700 -92.1792 103° East 499 574 24,900 -1,260 Descending Kansas City Center
04:42PM 38.7408 -92.0214 103° East 457 526 23,600 -1,920 Descending Kansas City Center
04:43PM 38.7089 -91.8419 103° East 433 498 21,000 -2,160 Descending Kansas City Center
04:44PM 38.6906 -91.6967 99° East 418 481 19,200 -1,920 Descending Kansas City Center
04:45PM 38.6917 -91.5592 89° East 391 450 17,100 -1,980 Descending Kansas City Center
04:46PM 38.6917 -91.4233 90° East 382 440 15,200 -1,740 Descending Kansas City Center
04:47PM 38.6928 -91.3092 89° East 369 425 13,600 -1,740 Descending Kansas City Center
04:48PM 38.6931 -91.1611 90° East 352 405 11,600 -1,740 Descending Kansas City Center
04:49PM 38.7164 -91.0550 74° East 323 372 10,000 -1,560 Descending Kansas City Center
04:50PM 38.7561 -90.9667 60° Northeast 291 335 8,400 -1,440 Descending Kansas City Center
04:51PM 38.7953 -90.8814 59° Northeast 280 322 7,100 -1,320 Descending Kansas City Center
04:52PM 38.8311 -90.7978 61° Northeast 270 311 5,700 -1,260 Descending Kansas City Center
04:53PM 38.8542 -90.7167 70° East 248 285 4,500 -1,140 Descending Kansas City Center
04:54PM 38.8447 -90.6417 99° East 195 224 3,400 -780 Descending Kansas City Center
04:55PM 38.8361 -90.5831 101° East 177 204 3,000 -240 Descending Kansas City Center
04:56PM 38.8253 -90.5214 103° East 174 200 3,000 -480 Level Kansas City Center
04:57PM 38.7986 -90.4700 124° Southeast 174 200 2,100 -780 Descending Kansas City Center
04:59PM 38.7769 -90.4264 122° Southeast 158 182 1,400 -720 Descending Kansas City Center
05:00PM 38.7569 -90.3833 121° Southeast 147 169 700 -720 Descending Kansas City Center